createdAt,value
2016-11-01T00:00:24.568Z,0
2016-11-01T00:01:24.232Z,0
2016-11-01T00:02:24.493Z,0
2016-11-01T00:03:24.151Z,0
2016-11-01T00:04:24.420Z,0
2016-11-01T00:05:24.380Z,0
2016-11-01T00:06:24.336Z,0
2016-11-01T00:07:23.999Z,0
2016-11-01T00:08:24.270Z,0
2016-11-01T00:09:24.231Z,0
2016-11-01T00:10:23.585Z,0
2016-11-01T00:11:23.849Z,0
2016-11-01T00:12:23.815Z,0
2016-11-01T00:13:23.769Z,0
2016-11-01T00:14:24.063Z,0
2016-11-01T00:15:24.028Z,0
2016-11-01T00:16:23.968Z,0
2016-11-01T00:17:23.321Z,0
2016-11-01T00:18:23.893Z,0
2016-11-01T00:19:23.247Z,0
2016-11-01T00:20:23.809Z,0
2016-11-01T00:21:23.770Z,0
2016-11-01T00:22:23.430Z,0
2016-11-01T00:23:23.694Z,0
2016-11-01T00:24:23.659Z,0
2016-11-01T00:25:23.318Z,0
2016-11-01T00:26:23.283Z,0
2016-11-01T00:27:23.540Z,0
2016-11-01T00:28:23.206Z,0
2016-11-01T00:29:23.474Z,0
2016-11-01T00:30:23.430Z,0
2016-11-01T00:31:23.086Z,0
2016-11-01T00:32:23.051Z,0
2016-11-01T00:33:23.016Z,0
2016-11-01T00:34:22.973Z,0
2016-11-01T00:35:22.935Z,0
2016-11-01T00:36:23.201Z,0
2016-11-01T00:37:23.163Z,0
2016-11-01T00:38:22.823Z,0
2016-11-01T00:39:23.117Z,0
2016-11-01T00:40:22.750Z,0
2016-11-01T00:41:23.019Z,0
2016-11-01T00:42:22.994Z,0
2016-11-01T00:43:22.933Z,0
2016-11-01T00:44:22.600Z,0
2016-11-01T00:45:22.868Z,0
2016-11-01T00:46:22.525Z,0
2016-11-01T00:47:22.825Z,0
2016-11-01T00:48:22.752Z,0
2016-11-01T00:49:22.707Z,0
2016-11-01T00:50:22.383Z,0
2016-11-01T00:51:22.337Z,0
2016-11-01T00:52:22.592Z,0
2016-11-01T00:53:22.261Z,0
2016-11-01T00:54:22.246Z,0
2016-11-01T00:55:22.190Z,0
2016-11-01T00:56:22.437Z,0
2016-11-01T00:57:22.413Z,0
2016-11-01T00:58:22.368Z,0
2016-11-01T00:59:22.026Z,0
2016-11-01T01:00:21.990Z,0
2016-11-01T01:01:21.949Z,0
2016-11-01T01:02:21.613Z,0
2016-11-01T01:03:21.575Z,0
2016-11-01T01:04:21.233Z,0
2016-11-01T01:05:22.104Z,0
2016-11-01T01:06:22.063Z,0
2016-11-01T01:07:21.720Z,0
2016-11-01T01:08:21.727Z,0
2016-11-01T01:09:21.948Z,0
2016-11-01T01:10:21.968Z,0
2016-11-01T01:11:21.876Z,0
2016-11-01T01:12:21.838Z,0
2016-11-01T01:13:21.496Z,0
2016-11-01T01:14:21.759Z,0
2016-11-01T01:15:21.421Z,0
2016-11-01T01:16:21.692Z,0
2016-11-01T01:17:21.338Z,0
2016-11-01T01:18:21.308Z,0
2016-11-01T01:19:21.265Z,0
2016-11-01T01:20:21.238Z,0
2016-11-01T01:21:21.539Z,0
2016-11-01T01:22:20.850Z,0
2016-11-01T01:23:21.428Z,0
2016-11-01T01:24:21.076Z,0
2016-11-01T01:25:21.343Z,0
2016-11-01T01:26:21.299Z,0
2016-11-01T01:27:20.973Z,0
2016-11-01T01:28:21.225Z,0
2016-11-01T01:29:20.889Z,0
2016-11-01T01:30:21.151Z,0
2016-11-01T01:31:21.118Z,0
2016-11-01T01:32:21.080Z,0
2016-11-01T01:33:21.033Z,0
2016-11-01T01:34:21.030Z,0
2016-11-01T01:35:20.657Z,0
2016-11-01T01:36:20.622Z,0
2016-11-01T01:37:20.618Z,0
2016-11-01T01:38:20.597Z,0
2016-11-01T01:39:20.505Z,0
2016-11-01T01:40:20.465Z,0
2016-11-01T01:41:20.730Z,0
2016-11-01T01:42:20.098Z,0
2016-11-01T01:43:20.357Z,0
2016-11-01T01:44:20.621Z,0
2016-11-01T01:45:20.302Z,0
2016-11-01T01:46:20.550Z,0
2016-11-01T01:47:20.504Z,0
2016-11-01T01:48:20.169Z,0
2016-11-01T01:49:20.129Z,0
2016-11-01T01:50:20.087Z,0
2016-11-01T01:51:19.753Z,0
2016-11-01T01:52:20.020Z,0
2016-11-01T01:53:20.321Z,0
2016-11-01T01:54:19.939Z,0
2016-11-01T01:55:19.899Z,0
2016-11-01T01:56:20.172Z,0
2016-11-01T01:57:19.823Z,0
2016-11-01T01:58:20.099Z,0
2016-11-01T01:59:19.747Z,0
2016-11-01T02:00:20.016Z,0
2016-11-01T02:01:19.368Z,0
2016-11-01T02:02:19.336Z,0
2016-11-01T02:03:19.898Z,0
2016-11-01T02:04:19.563Z,0
2016-11-01T02:05:19.819Z,0
2016-11-01T02:06:19.187Z,0
2016-11-01T02:07:19.749Z,0
2016-11-01T02:08:19.705Z,0
2016-11-01T02:09:19.673Z,0
2016-11-01T02:10:19.634Z,0
2016-11-01T02:11:19.600Z,0
2016-11-01T02:12:19.258Z,0
2016-11-01T02:13:19.518Z,0
2016-11-01T02:14:19.480Z,0
2016-11-01T02:15:19.181Z,0
2016-11-01T02:16:19.409Z,0
2016-11-01T02:17:19.376Z,0
2016-11-01T02:18:19.028Z,0
2016-11-01T02:19:18.991Z,0
2016-11-01T02:20:18.944Z,0
2016-11-01T02:21:18.913Z,0
2016-11-01T02:22:18.871Z,0
2016-11-01T02:23:18.535Z,0
2016-11-01T02:24:18.500Z,0
2016-11-01T02:25:18.765Z,0
2016-11-01T02:26:19.028Z,0
2016-11-01T02:27:18.983Z,0
2016-11-01T02:28:18.946Z,0
2016-11-01T02:29:18.911Z,0
2016-11-01T02:30:18.876Z,0
2016-11-01T02:31:18.837Z,0
2016-11-01T02:32:18.794Z,0
2016-11-01T02:33:18.765Z,0
2016-11-01T02:34:18.730Z,0
2016-11-01T02:35:18.379Z,0
2016-11-01T02:36:18.642Z,0
2016-11-01T02:37:18.301Z,0
2016-11-01T02:38:18.265Z,0
2016-11-01T02:39:18.232Z,0
2016-11-01T02:40:18.530Z,0
2016-11-01T02:41:18.450Z,0
2016-11-01T02:42:18.415Z,0
2016-11-01T02:43:18.371Z,0
2016-11-01T02:44:18.339Z,0
2016-11-01T02:45:18.301Z,0
2016-11-01T02:46:17.960Z,0
2016-11-01T02:47:17.945Z,0
2016-11-01T02:48:18.188Z,0
2016-11-01T02:49:18.156Z,0
2016-11-01T02:50:18.111Z,0
2016-11-01T02:51:18.077Z,0
2016-11-01T02:52:17.731Z,0
2016-11-01T02:53:17.996Z,0
2016-11-01T02:54:17.978Z,0
2016-11-01T02:55:17.675Z,0
2016-11-01T02:56:17.884Z,0
2016-11-01T02:57:17.842Z,0
2016-11-01T02:58:17.803Z,0
2016-11-01T02:59:17.468Z,0
2016-11-01T03:00:17.735Z,0
2016-11-01T03:01:17.689Z,0
2016-11-01T03:02:17.659Z,0
2016-11-01T03:03:17.020Z,0
2016-11-01T03:04:17.587Z,0
2016-11-01T03:05:17.548Z,0
2016-11-01T03:06:17.501Z,0
2016-11-01T03:07:17.464Z,0
2016-11-01T03:08:17.425Z,0
2016-11-01T03:09:17.387Z,0
2016-11-01T03:10:17.046Z,0
2016-11-01T03:11:17.312Z,0
2016-11-01T03:12:17.271Z,0
2016-11-01T03:13:17.233Z,0
2016-11-01T03:14:16.898Z,0
2016-11-01T03:15:17.204Z,0
2016-11-01T03:16:17.117Z,0
2016-11-01T03:17:17.081Z,0
2016-11-01T03:18:16.749Z,0
2016-11-01T03:19:17.005Z,0
2016-11-01T03:20:16.363Z,0
2016-11-01T03:21:16.929Z,0
2016-11-01T03:22:16.900Z,0
2016-11-01T03:23:16.862Z,0
2016-11-01T03:24:16.517Z,0
2016-11-01T03:25:16.779Z,0
2016-11-01T03:26:16.739Z,0
2016-11-01T03:27:16.702Z,0
2016-11-01T03:28:16.660Z,0
2016-11-01T03:29:16.622Z,0
2016-11-01T03:30:16.587Z,0
2016-11-01T03:31:16.547Z,0
2016-11-01T03:32:16.508Z,0
2016-11-01T03:33:16.468Z,0
2016-11-01T03:34:16.129Z,0
2016-11-01T03:35:16.093Z,0
2016-11-01T03:36:16.352Z,0
2016-11-01T03:37:16.028Z,0
2016-11-01T03:38:16.283Z,0
2016-11-01T03:39:16.252Z,0
2016-11-01T03:40:15.899Z,0
2016-11-01T03:41:16.174Z,0
2016-11-01T03:42:16.133Z,0
2016-11-01T03:43:15.787Z,0
2016-11-01T03:44:16.057Z,0
2016-11-01T03:45:16.014Z,0
2016-11-01T03:46:15.972Z,0
2016-11-01T03:47:15.939Z,0
2016-11-01T03:48:15.622Z,0
2016-11-01T03:49:15.558Z,0
2016-11-01T03:50:15.827Z,0
2016-11-01T03:51:15.786Z,0
2016-11-01T03:52:15.438Z,0
2016-11-01T03:53:15.417Z,0
2016-11-01T03:54:15.665Z,0
2016-11-01T03:55:15.633Z,0
2016-11-01T03:56:15.586Z,0
2016-11-01T03:57:15.560Z,0
2016-11-01T03:58:15.512Z,0
2016-11-01T03:59:15.478Z,0
2016-11-01T04:00:15.138Z,0
2016-11-01T04:01:15.102Z,0
2016-11-01T04:02:14.767Z,0
2016-11-01T04:03:15.327Z,0
2016-11-01T04:04:15.286Z,0
2016-11-01T04:05:15.247Z,0
2016-11-01T04:06:14.912Z,0
2016-11-01T04:07:14.579Z,0
2016-11-01T04:08:15.139Z,0
2016-11-01T04:09:15.103Z,0
2016-11-01T04:10:15.060Z,0
2016-11-01T04:11:14.757Z,0
2016-11-01T04:12:14.376Z,0
2016-11-01T04:13:14.942Z,0
2016-11-01T04:14:14.905Z,0
2016-11-01T04:15:14.870Z,0
2016-11-01T04:16:14.525Z,0
2016-11-01T04:17:14.790Z,0
2016-11-01T04:18:14.749Z,0
2016-11-01T04:19:14.409Z,0
2016-11-01T04:20:14.671Z,0
2016-11-01T04:21:14.635Z,0
2016-11-01T04:22:14.595Z,0
2016-11-01T04:23:14.261Z,0
2016-11-01T04:24:14.556Z,0
2016-11-01T04:25:14.480Z,0
2016-11-01T04:26:14.141Z,0
2016-11-01T04:27:14.105Z,0
2016-11-01T04:28:14.375Z,0
2016-11-01T04:29:14.334Z,0
2016-11-01T04:30:14.292Z,0
2016-11-01T04:31:14.255Z,0
2016-11-01T04:32:14.218Z,0
2016-11-01T04:33:14.176Z,0
2016-11-01T04:34:14.139Z,0
2016-11-01T04:35:14.102Z,0
2016-11-01T04:36:13.763Z,0
2016-11-01T04:37:14.022Z,0
2016-11-01T04:38:13.688Z,0
2016-11-01T04:39:13.648Z,0
2016-11-01T04:40:13.905Z,0
2016-11-01T04:41:13.575Z,0
2016-11-01T04:42:13.828Z,0
2016-11-01T04:43:13.805Z,0
2016-11-01T04:44:13.758Z,0
2016-11-01T04:45:13.758Z,0
2016-11-01T04:46:13.676Z,0
2016-11-01T04:47:13.337Z,0
2016-11-01T04:48:13.604Z,0
2016-11-01T04:49:13.563Z,0
2016-11-01T04:50:13.524Z,0
2016-11-01T04:51:13.487Z,0
2016-11-01T04:52:13.446Z,0
2016-11-01T04:53:13.422Z,0
2016-11-01T04:54:13.083Z,0
2016-11-01T04:55:13.338Z,0
2016-11-01T04:56:13.294Z,0
2016-11-01T04:57:13.257Z,0
2016-11-01T04:58:13.219Z,0
2016-11-01T04:59:13.186Z,0
2016-11-01T05:00:12.843Z,0
2016-11-01T05:01:13.106Z,0
2016-11-01T05:02:13.066Z,0
2016-11-01T05:03:13.024Z,0
2016-11-01T05:04:12.683Z,0
2016-11-01T05:05:12.945Z,0
2016-11-01T05:06:12.947Z,0
2016-11-01T05:07:12.881Z,0
2016-11-01T05:08:12.840Z,0
2016-11-01T05:09:12.800Z,0
2016-11-01T05:10:12.454Z,0
2016-11-01T05:11:12.718Z,0
2016-11-01T05:12:12.687Z,0
2016-11-01T05:13:12.649Z,0
2016-11-01T05:14:12.329Z,0
2016-11-01T05:15:12.576Z,0
2016-11-01T05:16:12.532Z,0
2016-11-01T05:17:12.187Z,0
2016-11-01T05:18:12.448Z,0
2016-11-01T05:19:12.414Z,0
2016-11-01T05:20:12.381Z,0
2016-11-01T05:21:11.733Z,0
2016-11-01T05:22:12.298Z,0
2016-11-01T05:23:12.261Z,0
2016-11-01T05:24:12.229Z,0
2016-11-01T05:25:11.878Z,0
2016-11-01T05:26:12.137Z,0
2016-11-01T05:27:12.109Z,0
2016-11-01T05:28:11.767Z,0
2016-11-01T05:29:11.727Z,0
2016-11-01T05:30:11.989Z,0
2016-11-01T05:31:11.986Z,0
2016-11-01T05:32:11.612Z,0
2016-11-01T05:33:11.875Z,0
2016-11-01T05:34:11.839Z,0
2016-11-01T05:35:11.197Z,0
2016-11-01T05:36:11.157Z,0
2016-11-01T05:37:11.419Z,0
2016-11-01T05:38:10.778Z,0
2016-11-01T05:39:11.652Z,0
2016-11-01T05:40:10.998Z,0
2016-11-01T05:41:11.273Z,0
2016-11-01T05:42:10.930Z,0
2016-11-01T05:43:10.907Z,0
2016-11-01T05:44:11.451Z,4
2016-11-01T05:45:11.116Z,4
2016-11-01T05:46:10.469Z,4
2016-11-01T05:47:11.341Z,0
2016-11-01T05:48:10.695Z,4
2016-11-01T05:49:11.260Z,4
2016-11-01T05:50:11.223Z,8
2016-11-01T05:51:11.187Z,4
2016-11-01T05:52:11.144Z,8
2016-11-01T05:53:10.799Z,4
2016-11-01T05:54:10.463Z,8
2016-11-01T05:55:11.023Z,12
2016-11-01T05:56:10.991Z,12
2016-11-01T05:57:10.960Z,12
2016-11-01T05:58:10.918Z,16
2016-11-01T05:59:10.873Z,20
2016-11-01T06:00:10.230Z,20
2016-11-01T06:01:10.798Z,28
2016-11-01T06:02:10.455Z,28
2016-11-01T06:03:10.720Z,32
2016-11-01T06:04:10.680Z,36
2016-11-01T06:05:10.639Z,40
2016-11-01T06:06:10.608Z,44
2016-11-01T06:07:10.343Z,48
2016-11-01T06:08:10.225Z,56
2016-11-01T06:09:10.489Z,56
2016-11-01T06:10:10.148Z,64
2016-11-01T06:11:10.113Z,68
2016-11-01T06:12:10.379Z,72
2016-11-01T06:13:10.030Z,80
2016-11-01T06:14:10.293Z,84
2016-11-01T06:15:09.648Z,88
2016-11-01T06:16:10.219Z,96
2016-11-01T06:17:09.582Z,108
2016-11-01T06:18:09.843Z,116
2016-11-01T06:19:10.117Z,120
2016-11-01T06:20:09.892Z,128
2016-11-01T06:21:09.417Z,144
2016-11-01T06:22:09.694Z,144
2016-11-01T06:23:09.648Z,144
2016-11-01T06:24:09.910Z,160
2016-11-01T06:25:09.870Z,164
2016-11-01T06:26:09.525Z,180
2016-11-01T06:27:09.794Z,188
2016-11-01T06:28:09.453Z,200
2016-11-01T06:29:09.716Z,208
2016-11-01T06:30:09.379Z,228
2016-11-01T06:31:09.332Z,240
2016-11-01T06:32:09.598Z,248
2016-11-01T06:33:09.262Z,272
2016-11-01T06:34:09.523Z,296
2016-11-01T06:35:08.880Z,312
2016-11-01T06:36:08.839Z,328
2016-11-01T06:37:09.407Z,340
2016-11-01T06:38:09.375Z,352
2016-11-01T06:39:09.329Z,360
2016-11-01T06:40:08.984Z,364
2016-11-01T06:41:08.952Z,364
2016-11-01T06:42:08.911Z,372
2016-11-01T06:43:09.213Z,392
2016-11-01T06:44:08.827Z,400
2016-11-01T06:45:09.106Z,408
2016-11-01T06:46:08.800Z,408
2016-11-01T06:47:08.736Z,408
2016-11-01T06:48:08.678Z,420
2016-11-01T06:49:08.341Z,428
2016-11-01T06:50:08.298Z,444
2016-11-01T06:51:08.568Z,460
2016-11-01T06:52:08.827Z,476
2016-11-01T06:53:08.482Z,492
2016-11-01T06:54:08.750Z,508
2016-11-01T06:55:08.707Z,536
2016-11-01T06:56:08.672Z,552
2016-11-01T06:57:08.632Z,580
2016-11-01T06:58:08.600Z,608
2016-11-01T06:59:08.580Z,640
2016-11-01T07:00:08.515Z,652
2016-11-01T07:01:07.876Z,680
2016-11-01T07:02:08.478Z,728
2016-11-01T07:03:08.404Z,772
2016-11-01T07:04:08.064Z,788
2016-11-01T07:05:08.322Z,804
2016-11-01T07:06:08.325Z,848
2016-11-01T07:07:07.981Z,820
2016-11-01T07:08:08.209Z,796
2016-11-01T07:09:08.173Z,796
2016-11-01T07:10:07.835Z,852
2016-11-01T07:11:07.794Z,908
2016-11-01T07:12:07.750Z,912
2016-11-01T07:13:08.024Z,932
2016-11-01T07:14:07.683Z,952
2016-11-01T07:15:07.943Z,968
2016-11-01T07:16:07.903Z,996
2016-11-01T07:17:07.297Z,1052
2016-11-01T07:18:07.528Z,1088
2016-11-01T07:19:07.793Z,1080
2016-11-01T07:20:07.747Z,1068
2016-11-01T07:21:07.723Z,1108
2016-11-01T07:22:07.672Z,1112
2016-11-01T07:23:07.636Z,1100
2016-11-01T07:24:07.597Z,1136
2016-11-01T07:25:07.259Z,1192
2016-11-01T07:26:07.520Z,1228
2016-11-01T07:27:07.183Z,1248
2016-11-01T07:28:07.447Z,1304
2016-11-01T07:29:07.410Z,1420
2016-11-01T07:30:07.374Z,1512
2016-11-01T07:31:06.729Z,1520
2016-11-01T07:32:06.991Z,1512
2016-11-01T07:33:07.255Z,1556
2016-11-01T07:34:06.320Z,1560
2016-11-01T07:35:07.174Z,1548
2016-11-01T07:36:06.837Z,1572
2016-11-01T07:37:06.802Z,1584
2016-11-01T07:38:07.073Z,1648
2016-11-01T07:39:07.029Z,1708
2016-11-01T07:40:06.996Z,1748
2016-11-01T07:41:06.951Z,1808
2016-11-01T07:42:06.612Z,1884
2016-11-01T07:43:06.876Z,1968
2016-11-01T07:44:06.835Z,2080
2016-11-01T07:45:06.499Z,2108
2016-11-01T07:46:06.160Z,2252
2016-11-01T07:47:06.722Z,2420
2016-11-01T07:48:06.082Z,2344
2016-11-01T07:49:06.652Z,2300
2016-11-01T07:50:06.309Z,2164
2016-11-01T07:51:06.271Z,1996
2016-11-01T07:52:05.932Z,2168
2016-11-01T07:53:06.199Z,2456
2016-11-01T07:54:06.212Z,3168
2016-11-01T07:55:06.427Z,3136
2016-11-01T07:56:05.785Z,2516
2016-11-01T07:57:06.353Z,2040
2016-11-01T07:58:06.310Z,2216
2016-11-01T07:59:06.274Z,2636
2016-11-01T08:00:05.935Z,2692
2016-11-01T08:01:05.896Z,2768
2016-11-01T08:02:05.856Z,3144
2016-11-01T08:03:06.119Z,3456
2016-11-01T08:04:05.782Z,3932
2016-11-01T08:05:06.045Z,4400
2016-11-01T08:06:05.405Z,3992
2016-11-01T08:07:05.668Z,3716
2016-11-01T08:08:05.673Z,4096
2016-11-01T08:09:05.896Z,4540
2016-11-01T08:10:05.860Z,4328
2016-11-01T08:11:05.827Z,4036
2016-11-01T08:12:05.791Z,3868
2016-11-01T08:13:05.449Z,4296
2016-11-01T08:14:05.707Z,3872
2016-11-01T08:15:05.369Z,3728
2016-11-01T08:16:05.345Z,3936
2016-11-01T08:17:05.301Z,4268
2016-11-01T08:18:05.557Z,4608
2016-11-01T08:19:05.221Z,4720
2016-11-01T08:20:05.493Z,4352
2016-11-01T08:21:05.466Z,3636
2016-11-01T08:22:05.430Z,3324
2016-11-01T08:23:04.777Z,3464
2016-11-01T08:24:04.731Z,3208
2016-11-01T08:25:04.703Z,3344
2016-11-01T08:26:05.262Z,3256
2016-11-01T08:27:05.226Z,2588
2016-11-01T08:28:04.885Z,2828
2016-11-01T08:29:05.148Z,3888
2016-11-01T08:30:05.109Z,4068
2016-11-01T08:31:04.474Z,3736
2016-11-01T08:32:04.737Z,3764
2016-11-01T08:33:05.006Z,3268
2016-11-01T08:34:04.969Z,3432
2016-11-01T08:35:04.930Z,3844
2016-11-01T08:36:04.583Z,3820
2016-11-01T08:37:04.255Z,4080
2016-11-01T08:38:04.822Z,4596
2016-11-01T08:39:04.472Z,4368
2016-11-01T08:40:04.442Z,4156
2016-11-01T08:41:04.706Z,4112
2016-11-01T08:42:04.665Z,4176
2016-11-01T08:43:04.626Z,4136
2016-11-01T08:44:04.593Z,3864
2016-11-01T08:45:04.254Z,4292
2016-11-01T08:46:04.213Z,4628
2016-11-01T08:47:04.476Z,4824
2016-11-01T08:48:04.144Z,5428
2016-11-01T08:49:04.440Z,5944
2016-11-01T08:50:04.067Z,5440
2016-11-01T08:51:04.025Z,4808
2016-11-01T08:52:03.697Z,4496
2016-11-01T08:53:04.255Z,4088
2016-11-01T08:54:03.914Z,4000
2016-11-01T08:55:04.183Z,5416
2016-11-01T08:56:03.846Z,5860
2016-11-01T08:57:03.807Z,6172
2016-11-01T08:58:04.070Z,5912
2016-11-01T08:59:03.729Z,6132
2016-11-01T09:00:03.690Z,5736
2016-11-01T09:01:03.991Z,5540
2016-11-01T09:02:03.323Z,5152
2016-11-01T09:03:03.582Z,5756
2016-11-01T09:04:03.281Z,6236
2016-11-01T09:05:03.806Z,6388
2016-11-01T09:06:03.467Z,6352
2016-11-01T09:07:03.433Z,6288
2016-11-01T09:08:03.694Z,6488
2016-11-01T09:09:02.753Z,6704
2016-11-01T09:10:03.319Z,6828
2016-11-01T09:11:03.589Z,7004
2016-11-01T09:12:03.541Z,7440
2016-11-01T09:13:03.516Z,7472
2016-11-01T09:14:03.168Z,6836
2016-11-01T09:15:03.436Z,6364
2016-11-01T09:16:03.401Z,5648
2016-11-01T09:17:03.366Z,5024
2016-11-01T09:18:03.321Z,5336
2016-11-01T09:19:02.688Z,5720
2016-11-01T09:20:02.945Z,6316
2016-11-01T09:21:02.912Z,8008
2016-11-01T09:22:02.876Z,10824
2016-11-01T09:23:03.141Z,11764
2016-11-01T09:24:03.107Z,12492
2016-11-01T09:25:03.070Z,13056
2016-11-01T09:26:03.031Z,12164
2016-11-01T09:27:03.001Z,11200
2016-11-01T09:28:02.654Z,10740
2016-11-01T09:29:02.315Z,10604
2016-11-01T09:30:02.318Z,10516
2016-11-01T09:31:02.848Z,9792
2016-11-01T09:32:02.510Z,9272
2016-11-01T09:33:02.473Z,9028
2016-11-01T09:34:02.740Z,8312
2016-11-01T09:35:02.706Z,7912
2016-11-01T09:36:02.372Z,7912
2016-11-01T09:37:02.027Z,8268
2016-11-01T09:38:02.294Z,8980
2016-11-01T09:39:02.565Z,9704
2016-11-01T09:40:02.525Z,9844
2016-11-01T09:41:01.581Z,10020
2016-11-01T09:42:02.448Z,9976
2016-11-01T09:43:02.416Z,9212
2016-11-01T09:44:02.174Z,8232
2016-11-01T09:45:02.343Z,8240
2016-11-01T09:46:02.309Z,9480
2016-11-01T09:47:01.969Z,12548
2016-11-01T09:48:01.632Z,12284
2016-11-01T09:49:01.896Z,11872
2016-11-01T09:50:01.863Z,13216
2016-11-01T09:51:01.827Z,12796
2016-11-01T09:52:01.486Z,12284
2016-11-01T09:53:02.069Z,13712
2016-11-01T09:54:01.723Z,15560
2016-11-01T09:55:01.686Z,16372
2016-11-01T09:56:01.649Z,14840
2016-11-01T09:57:01.611Z,14612
2016-11-01T09:58:01.575Z,15692
2016-11-01T09:59:01.839Z,15592
2016-11-01T10:00:01.810Z,16392
2016-11-01T10:01:00.866Z,17376
2016-11-01T10:02:01.133Z,17760
2016-11-01T10:03:01.714Z,18816
2016-11-01T10:04:01.368Z,18336
2016-11-01T10:05:01.329Z,16308
2016-11-01T10:06:01.293Z,17248
2016-11-01T10:07:01.561Z,32576
2016-11-01T10:08:01.226Z,27072
2016-11-01T10:09:01.490Z,32320
2016-11-01T10:10:00.554Z,33056
2016-11-01T10:11:01.126Z,30752
2016-11-01T10:12:01.389Z,20896
2016-11-01T10:13:01.068Z,16420
2016-11-01T10:14:01.030Z,17888
2016-11-01T10:15:01.292Z,29120
2016-11-01T10:16:00.710Z,17856
2016-11-01T10:17:00.940Z,17568
2016-11-01T10:18:01.197Z,18688
2016-11-01T10:19:01.165Z,30816
2016-11-01T10:20:00.830Z,32320
2016-11-01T10:21:01.112Z,30624
2016-11-01T10:22:00.774Z,29920
2016-11-01T10:23:01.046Z,26688
2016-11-01T10:24:01.009Z,23488
2016-11-01T10:25:00.979Z,25408
2016-11-01T10:26:00.952Z,30560
2016-11-01T10:27:00.915Z,30080
2016-11-01T10:28:00.587Z,35520
2016-11-01T10:29:00.553Z,39840
2016-11-01T10:30:00.525Z,45120
2016-11-01T10:31:00.496Z,41920
2016-11-01T10:32:00.770Z,54720
2016-11-01T10:33:00.743Z,62112
2016-11-01T10:34:00.102Z,53440
2016-11-01T10:35:00.073Z,52928
2016-11-01T10:36:00.044Z,40800
2016-11-01T10:37:00.629Z,51520
2016-11-01T10:38:00.591Z,51392
2016-11-01T10:39:00.264Z,54816
2016-11-01T10:40:00.534Z,58016
2016-11-01T10:41:00.543Z,51008
2016-11-01T10:42:00.193Z,32384
2016-11-01T10:43:00.458Z,44128
2016-11-01T10:44:00.119Z,31776
2016-11-01T10:45:00.094Z,32192
2016-11-01T10:46:00.368Z,32320
2016-11-01T10:47:00.038Z,32256
2016-11-01T10:48:00.016Z,32576
2016-11-01T10:48:59.985Z,28032
2016-11-01T10:49:59.958Z,36544
2016-11-01T10:50:59.935Z,47552
2016-11-01T10:52:00.211Z,50752
2016-11-01T10:52:59.580Z,44544
2016-11-01T10:53:59.855Z,41792
2016-11-01T10:54:59.826Z,27392
2016-11-01T10:55:59.799Z,23968
2016-11-01T10:57:00.072Z,19904
2016-11-01T10:58:00.046Z,18176
2016-11-01T10:58:59.717Z,22336
2016-11-01T10:59:59.999Z,23328
2016-11-01T11:00:59.962Z,24768
2016-11-01T11:01:59.331Z,30688
2016-11-01T11:02:59.613Z,31552
2016-11-01T11:03:59.591Z,30528
2016-11-01T11:04:59.568Z,20352
2016-11-01T11:05:59.833Z,18304
2016-11-01T11:06:59.802Z,18912
2016-11-01T11:07:59.483Z,22656
2016-11-01T11:08:59.466Z,19072
2016-11-01T11:09:59.424Z,26304
2016-11-01T11:10:59.392Z,23840
2016-11-01T11:11:59.069Z,18560
2016-11-01T11:12:59.379Z,18496
2016-11-01T11:13:59.611Z,20640
2016-11-01T11:14:58.683Z,20576
2016-11-01T11:15:59.610Z,20544
2016-11-01T11:16:59.536Z,31264
2016-11-01T11:17:59.516Z,37600
2016-11-01T11:18:59.475Z,36192
2016-11-01T11:19:59.145Z,26560
2016-11-01T11:20:59.121Z,18400
2016-11-01T11:21:59.391Z,16064
2016-11-01T11:22:59.369Z,15492
2016-11-01T11:23:58.768Z,14508
2016-11-01T11:24:59.313Z,14928
2016-11-01T11:25:59.293Z,14100
2016-11-01T11:26:58.952Z,14500
2016-11-01T11:27:59.270Z,14764
2016-11-01T11:28:59.226Z,11520
2016-11-01T11:29:58.864Z,11876
2016-11-01T11:30:59.133Z,12372
2016-11-01T11:31:59.015Z,13060
2016-11-01T11:32:58.780Z,12476
2016-11-01T11:33:59.047Z,12080
2016-11-01T11:34:59.023Z,12428
2016-11-01T11:35:58.990Z,12192
2016-11-01T11:36:58.652Z,11588
2016-11-01T11:37:58.628Z,11340
2016-11-01T11:38:58.896Z,11060
2016-11-01T11:39:58.865Z,10560
2016-11-01T11:40:58.843Z,10776
2016-11-01T11:41:58.508Z,10900
2016-11-01T11:42:58.774Z,10952
2016-11-01T11:43:58.442Z,10712
2016-11-01T11:44:58.412Z,10500
2016-11-01T11:45:58.684Z,10300
2016-11-01T11:46:58.046Z,9668
2016-11-01T11:47:58.623Z,9204
2016-11-01T11:48:58.589Z,8564
2016-11-01T11:49:58.290Z,8204
2016-11-01T11:50:57.927Z,7904
2016-11-01T11:51:58.238Z,7612
2016-11-01T11:52:58.463Z,7664
2016-11-01T11:53:58.127Z,7584
2016-11-01T11:54:58.398Z,7468
2016-11-01T11:55:58.067Z,7416
2016-11-01T11:56:58.033Z,7264
2016-11-01T11:57:58.010Z,7260
2016-11-01T11:58:58.270Z,7176
2016-11-01T11:59:57.634Z,7152
2016-11-01T12:00:57.904Z,7124
2016-11-01T12:01:58.177Z,7088
2016-11-01T12:02:58.139Z,6996
2016-11-01T12:03:58.114Z,6880
2016-11-01T12:04:58.082Z,6812
2016-11-01T12:05:58.081Z,6752
2016-11-01T12:06:57.707Z,6664
2016-11-01T12:07:57.671Z,6600
2016-11-01T12:08:57.641Z,6560
2016-11-01T12:09:57.645Z,6500
2016-11-01T12:10:57.893Z,6476
2016-11-01T12:11:57.839Z,6352
2016-11-01T12:12:57.818Z,6364
2016-11-01T12:13:57.171Z,6328
2016-11-01T12:14:57.143Z,6240
2016-11-01T12:15:57.408Z,6192
2016-11-01T12:16:57.073Z,6140
2016-11-01T12:17:57.651Z,6096
2016-11-01T12:18:57.616Z,6048
2016-11-01T12:19:56.968Z,6012
2016-11-01T12:20:57.243Z,5992
2016-11-01T12:21:57.511Z,5988
2016-11-01T12:22:57.172Z,5952
2016-11-01T12:23:57.459Z,5912
2016-11-01T12:24:57.406Z,5860
2016-11-01T12:25:57.066Z,5768
2016-11-01T12:26:57.032Z,5724
2016-11-01T12:27:57.301Z,5660
2016-11-01T12:28:57.011Z,5620
2016-11-01T12:29:57.236Z,5564
2016-11-01T12:30:56.901Z,5544
2016-11-01T12:31:56.867Z,5512
2016-11-01T12:32:56.830Z,5456
2016-11-01T12:33:57.099Z,5444
2016-11-01T12:34:56.773Z,5396
2016-11-01T12:35:56.720Z,5364
2016-11-01T12:36:56.992Z,5324
2016-11-01T12:37:56.356Z,5244
2016-11-01T12:38:56.319Z,5176
2016-11-01T12:39:56.932Z,5228
2016-11-01T12:40:56.864Z,5228
2016-11-01T12:41:56.814Z,5248
2016-11-01T12:42:56.188Z,5176
2016-11-01T12:43:56.755Z,5000
2016-11-01T12:44:56.711Z,5152
2016-11-01T12:45:56.679Z,5144
2016-11-01T12:46:56.352Z,5156
2016-11-01T12:47:56.308Z,5060
2016-11-01T12:48:56.574Z,5012
2016-11-01T12:49:56.541Z,4980
2016-11-01T12:50:56.515Z,4772
2016-11-01T12:51:56.168Z,4816
2016-11-01T12:52:56.439Z,4796
2016-11-01T12:53:56.408Z,4948
2016-11-01T12:54:56.067Z,5032
2016-11-01T12:55:56.330Z,5032
2016-11-01T12:56:56.295Z,5056
2016-11-01T12:57:55.650Z,5004
2016-11-01T12:58:55.924Z,4984
2016-11-01T12:59:56.188Z,4996
2016-11-01T13:00:56.156Z,4980
2016-11-01T13:01:56.128Z,4944
2016-11-01T13:02:55.777Z,4872
2016-11-01T13:03:55.749Z,4840
2016-11-01T13:04:56.005Z,4832
2016-11-01T13:05:55.978Z,4800
2016-11-01T13:06:55.672Z,4764
2016-11-01T13:07:55.645Z,4720
2016-11-01T13:08:55.561Z,4672
2016-11-01T13:09:55.534Z,4516
2016-11-01T13:10:55.798Z,4560
2016-11-01T13:11:55.162Z,4616
2016-11-01T13:12:55.459Z,4600
2016-11-01T13:13:55.382Z,4608
2016-11-01T13:14:55.045Z,4512
2016-11-01T13:15:55.315Z,4488
2016-11-01T13:16:55.292Z,4340
2016-11-01T13:17:54.936Z,4328
2016-11-01T13:18:55.516Z,4384
2016-11-01T13:19:55.470Z,4360
2016-11-01T13:20:55.138Z,4448
2016-11-01T13:21:55.402Z,4516
2016-11-01T13:22:55.368Z,4540
2016-11-01T13:23:54.729Z,4524
2016-11-01T13:24:54.688Z,4540
2016-11-01T13:25:54.660Z,4476
2016-11-01T13:26:55.228Z,4424
2016-11-01T13:27:55.183Z,4368
2016-11-01T13:28:54.848Z,4400
2016-11-01T13:29:54.816Z,4496
2016-11-01T13:30:54.776Z,4560
2016-11-01T13:31:55.042Z,4464
2016-11-01T13:32:55.005Z,4320
2016-11-01T13:33:54.972Z,4332
2016-11-01T13:34:54.975Z,4324
2016-11-01T13:35:54.902Z,4224
2016-11-01T13:36:54.908Z,4368
2016-11-01T13:37:54.527Z,4324
2016-11-01T13:38:54.791Z,4488
2016-11-01T13:39:54.760Z,4548
2016-11-01T13:40:54.717Z,4476
2016-11-01T13:41:54.381Z,4504
2016-11-01T13:42:54.652Z,4432
2016-11-01T13:43:54.614Z,4376
2016-11-01T13:44:54.277Z,4408
2016-11-01T13:45:54.244Z,4368
2016-11-01T13:46:54.198Z,4188
2016-11-01T13:47:54.477Z,4228
2016-11-01T13:48:54.432Z,4268
2016-11-01T13:49:54.091Z,4244
2016-11-01T13:50:54.367Z,4200
2016-11-01T13:51:54.021Z,4148
2016-11-01T13:52:53.977Z,4120